Time;durP1;ratioP1;P1;durP2;ratioP2;P2;SDS_P1;SDS_P2;PMS_P1;PMS_P2;Temp;Humidity;BMP_temperature;BMP_pressure;BME280_temperature;BME280_humidity;BME280_pressure;Samples;Min_cycle;Max_cycle;Signal;HPM_P1;HPM_P2
2022/06/13 00:00:52;;;;;;;14.57;7.53;;;17.10;72.60;;;;;;5049992;28;46299;-65
2022/06/13 00:03:18;;;;;;;11.70;5.90;;;17.10;72.40;;;;;;5055428;28;46288;-65
2022/06/13 00:05:43;;;;;;;11.80;5.97;;;17.20;71.60;;;;;;5048406;28;46304;-62
2022/06/13 00:08:09;;;;;;;13.77;7.43;;;17.40;71.30;;;;;;5056725;28;46598;-65
2022/06/13 00:10:36;;;;;;;11.50;7.47;;;17.50;70.30;;;;;;5051884;28;46311;-64
2022/06/13 00:13:02;;;;;;;11.87;6.63;;;17.60;70.00;;;;;;5052757;28;46437;-63
2022/06/13 00:15:28;;;;;;;17.17;7.43;;;17.70;70.00;;;;;;5051503;28;46382;-63
2022/06/13 00:17:53;;;;;;;12.53;7.03;;;17.70;70.00;;;;;;5054001;28;46680;-63
2022/06/13 00:20:19;;;;;;;11.50;6.93;;;17.60;70.50;;;;;;5054010;28;46620;-63
2022/06/13 00:22:45;;;;;;;11.20;6.80;;;17.60;71.50;;;;;;5052468;28;47305;-63
2022/06/13 00:25:11;;;;;;;10.10;7.37;;;17.50;71.40;;;;;;5052782;28;46401;-63
2022/06/13 00:27:36;;;;;;;14.40;7.47;;;17.40;71.70;;;;;;5051975;28;46378;-63
2022/06/13 00:30:05;;;;;;;12.87;7.07;;;17.40;72.00;;;;;;5050542;28;46882;-64
2022/06/13 00:32:30;;;;;;;9.07;6.40;;;17.40;71.80;;;;;;5051618;28;46418;-63
2022/06/13 00:34:56;;;;;;;9.53;6.23;;;17.50;71.40;;;;;;5055443;28;46632;-63
2022/06/13 00:37:21;;;;;;;10.07;5.43;;;17.60;71.50;;;;;;5052587;28;45921;-64
2022/06/13 00:39:47;;;;;;;10.00;6.60;;;17.70;70.90;;;;;;5053829;28;46512;-64
2022/06/13 00:42:18;;;;;;;14.03;7.40;;;17.80;70.50;;;;;;5052332;28;48828;-64
2022/06/13 00:45:17;;;;;;;10.20;6.70;;;17.90;70.20;;;;;;5052129;28;45902;-64
2022/06/13 00:47:45;;;;;;;13.73;6.60;;;18.00;70.50;;;;;;5053323;28;46406;-64
2022/06/13 00:50:17;;;;;;;11.37;7.37;;;18.00;69.90;;;;;;5050589;28;46337;-64
2022/06/13 00:52:50;;;;;;;8.53;5.83;;;18.00;71.00;;;;;;5049098;28;47980;-64
2022/06/13 00:55:31;;;;;;;10.23;5.90;;;18.00;69.80;;;;;;5053295;28;46590;-64
2022/06/13 00:57:59;;;;;;;10.40;6.40;;;18.00;70.00;;;;;;5052420;28;46483;-64
2022/06/13 01:00:26;;;;;;;10.00;6.00;;;18.10;70.00;;;;;;5051984;28;46370;-64
2022/06/13 01:02:53;;;;;;;11.73;7.07;;;18.00;70.80;;;;;;5051034;28;46496;-64
2022/06/13 01:05:24;;;;;;;15.40;5.90;;;18.00;70.60;;;;;;5049665;28;46435;-64
2022/06/13 01:07:51;;;;;;;13.07;6.30;;;17.90;70.90;;;;;;5054411;28;46396;-65
2022/06/13 01:13:08;;;;;;;8.03;5.30;;;17.90;71.10;;;;;;5054237;28;46413;-64
2022/06/13 01:15:43;;;;;;;13.53;6.80;;;18.00;70.80;;;;;;5050030;28;46381;-64
2022/06/13 01:18:37;;;;;;;15.13;5.50;;;18.00;70.40;;;;;;5049095;28;46327;-64
2022/06/13 01:21:13;;;;;;;7.67;5.30;;;18.00;70.50;;;;;;5055366;28;46401;-64
2022/06/13 01:24:06;;;;;;;10.10;5.60;;;18.00;70.40;;;;;;5053169;28;47347;-65
2022/06/13 01:26:32;;;;;;;7.30;5.00;;;18.00;71.10;;;;;;5051982;28;46315;-64
2022/06/13 01:29:19;;;;;;;8.93;5.13;;;17.90;71.70;;;;;;5051740;28;46460;-63
2022/06/13 01:31:56;;;;;;;7.33;4.90;;;17.80;72.40;;;;;;5050296;28;46354;-64
2022/06/13 01:34:55;;;;;;;8.00;4.43;;;17.80;72.30;;;;;;5048918;28;46535;-64
2022/06/13 01:37:33;;;;;;;5.03;3.93;;;17.70;72.80;;;;;;5052673;28;45829;-64
2022/06/13 01:40:17;;;;;;;9.53;4.80;;;17.70;72.10;;;;;;5051460;28;46420;-64
2022/06/13 01:43:15;;;;;;;9.70;4.40;;;17.80;72.40;;;;;;5052956;28;46291;-64
2022/06/13 01:45:55;;;;;;;8.33;4.63;;;17.70;73.40;;;;;;5053472;28;47069;-64
2022/06/13 01:48:26;;;;;;;6.20;4.37;;;17.70;73.80;;;;;;5049753;28;45879;-65
2022/06/13 01:51:01;;;;;;;8.17;4.50;;;17.60;74.20;;;;;;5047646;28;46531;-64
2022/06/13 01:53:53;;;;;;;8.90;5.20;;;17.60;73.50;;;;;;5051267;28;46357;-64
2022/06/13 01:56:33;;;;;;;5.70;4.30;;;17.70;73.30;;;;;;5048650;28;46390;-63
2022/06/13 01:59:14;;;;;;;8.27;4.27;;;17.70;72.60;;;;;;5049608;28;46397;-64
2022/06/13 02:02:01;;;;;;;7.47;4.30;;;17.80;72.40;;;;;;5048934;28;45801;-64
2022/06/13 02:04:53;;;;;;;8.20;5.03;;;17.80;72.10;;;;;;5052399;28;46466;-64
2022/06/13 02:07:26;;;;;;;9.40;5.10;;;17.80;71.70;;;;;;5050393;28;46703;-64
2022/06/13 02:10:10;;;;;;;7.00;5.30;;;17.80;71.70;;;;;;5048932;28;46409;-64
2022/06/13 02:12:36;;;;;;;8.60;5.30;;;17.80;71.70;;;;;;5051823;28;46511;-64
2022/06/13 02:15:17;;;;;;;7.40;4.60;;;17.90;71.70;;;;;;5050832;28;46389;-65
2022/06/13 02:17:50;;;;;;;7.70;4.60;;;17.90;71.70;;;;;;5050340;28;47256;-64
2022/06/13 02:20:34;;;;;;;6.73;4.50;;;17.90;71.70;;;;;;5050199;28;46428;-64
2022/06/13 02:23:10;;;;;;;6.30;4.20;;;17.90;71.70;;;;;;5050586;28;46446;-64
2022/06/13 02:25:43;;;;;;;7.70;5.07;;;17.90;71.70;;;;;;5053803;28;46318;-64
2022/06/13 02:28:19;;;;;;;7.23;4.40;;;17.90;71.70;;;;;;5049870;28;46987;-64
2022/06/13 02:30:56;;;;;;;8.00;5.33;;;18.00;71.60;;;;;;5047389;28;46558;-64
2022/06/13 02:33:42;;;;;;;8.80;4.77;;;17.90;71.70;;;;;;5048935;28;45968;-64
2022/06/13 02:36:27;;;;;;;9.67;5.10;;;17.80;71.70;;;;;;5046872;28;46418;-64
2022/06/13 02:39:06;;;;;;;13.77;5.43;;;17.80;71.70;;;;;;5048931;28;47322;-64
2022/06/13 02:41:40;;;;;;;9.67;6.40;;;17.80;71.70;;;;;;5048697;28;46444;-64
2022/06/13 02:44:12;;;;;;;8.33;5.10;;;17.80;71.70;;;;;;5053293;28;46478;-64
2022/06/13 02:46:46;;;;;;;8.63;5.70;;;17.80;72.30;;;;;;5052943;28;46508;-64
2022/06/13 02:49:30;;;;;;;10.53;5.60;;;17.80;71.70;;;;;;5051231;28;46482;-64
2022/06/13 02:52:20;;;;;;;8.17;5.20;;;17.80;71.70;;;;;;5051897;28;46350;-64
2022/06/13 02:54:53;;;;;;;8.10;5.27;;;17.90;71.80;;;;;;5054234;28;46459;-64
2022/06/13 02:57:55;;;;;;;10.60;5.53;;;17.90;71.70;;;;;;5056085;28;46415;-64
2022/06/13 03:00:44;;;;;;;7.90;5.30;;;17.80;71.70;;;;;;5051169;28;46964;-64
2022/06/13 03:04:05;;;;;;;9.53;5.90;;;17.90;71.70;;;;;;5053601;28;46425;-64
2022/06/13 03:06:52;;;;;;;8.50;5.60;;;17.90;71.70;;;;;;5048041;28;46423;-65
2022/06/13 03:09:31;;;;;;;9.30;5.80;;;17.80;71.70;;;;;;5050373;28;46288;-64
2022/06/13 03:12:14;;;;;;;9.23;6.13;;;17.70;71.60;;;;;;5053078;28;46369;-63
2022/06/13 03:14:56;;;;;;;8.90;5.70;;;17.70;71.60;;;;;;5051908;28;46415;-64
2022/06/13 03:17:54;;;;;;;12.53;7.10;;;17.60;72.10;;;;;;5050786;28;46523;-64
2022/06/13 03:20:30;;;;;;;8.43;6.33;;;17.50;72.40;;;;;;5050750;28;46416;-63
2022/06/13 03:23:29;;;;;;;10.33;6.40;;;17.50;72.20;;;;;;5052445;28;46494;-64
2022/06/13 03:26:05;;;;;;;10.20;6.37;;;17.50;72.40;;;;;;5052496;28;46409;-63
2022/06/13 03:28:55;;;;;;;11.90;5.60;;;17.40;72.20;;;;;;5049874;27;46438;-64
2022/06/13 03:31:30;;;;;;;11.50;5.33;;;17.40;72.30;;;;;;5053350;28;46357;-64
2022/06/13 03:34:01;;;;;;;8.00;6.27;;;17.50;72.20;;;;;;5049960;28;46384;-63
2022/06/13 03:36:40;;;;;;;8.30;5.50;;;17.50;72.00;;;;;;5052492;28;46677;-63
2022/06/13 03:39:28;;;;;;;8.57;5.90;;;17.50;71.80;;;;;;5051367;28;45823;-64
2022/06/13 03:42:16;;;;;;;13.80;6.53;;;17.60;71.50;;;;;;5051866;28;46349;-64
2022/06/13 03:44:52;;;;;;;10.13;6.30;;;17.60;71.50;;;;;;5041629;28;46355;-64
2022/06/13 03:47:31;;;;;;;16.40;6.33;;;17.60;71.50;;;;;;5051525;27;46737;-64
2022/06/13 03:50:22;;;;;;;7.73;5.43;;;17.60;71.50;;;;;;5051635;28;46532;-64
2022/06/13 03:53:04;;;;;;;7.50;4.73;;;17.60;71.50;;;;;;5051266;28;46480;-65
2022/06/13 03:55:36;;;;;;;6.80;4.70;;;17.70;71.60;;;;;;5057041;28;46079;-65
2022/06/13 03:58:05;;;;;;;9.70;5.30;;;17.70;71.70;;;;;;5048639;28;46287;-66
2022/06/13 04:00:38;;;;;;;6.63;4.33;;;17.70;71.60;;;;;;5051466;28;45944;-65
2022/06/13 04:03:05;;;;;;;6.87;4.90;;;17.70;71.60;;;;;;5049019;28;46381;-64
2022/06/13 04:05:42;;;;;;;8.10;5.50;;;17.80;71.70;;;;;;5052393;28;46353;-64
2022/06/13 04:08:09;;;;;;;7.90;5.70;;;17.90;71.70;;;;;;5049261;28;46405;-64
2022/06/13 04:11:03;;;;;;;6.57;4.70;;;17.90;71.10;;;;;;5054350;28;46361;-64
2022/06/13 04:13:55;;;;;;;8.87;4.60;;;18.00;71.20;;;;;;5055221;28;46517;-65
2022/06/13 04:16:32;;;;;;;6.33;4.10;;;18.00;70.90;;;;;;5054417;28;46806;-65
2022/06/13 04:19:12;;;;;;;7.83;4.50;;;18.10;71.00;;;;;;5050701;28;46492;-65
2022/06/13 04:22:00;;;;;;;8.37;4.77;;;18.00;70.70;;;;;;5049765;28;46318;-65
2022/06/13 04:24:36;;;;;;;7.73;4.13;;;18.10;70.80;;;;;;5053120;28;46111;-65
2022/06/13 04:27:17;;;;;;;6.10;4.10;;;18.10;70.80;;;;;;5051821;28;46698;-64
2022/06/13 04:29:50;;;;;;;6.80;4.10;;;18.10;70.90;;;;;;5051111;28;46428;-64
2022/06/13 04:32:21;;;;;;;6.30;3.83;;;18.00;71.60;;;;;;5049636;28;46695;-64
2022/06/13 04:34:50;;;;;;;5.87;3.93;;;18.10;71.60;;;;;;5051595;28;46390;-62
2022/06/13 04:37:18;;;;;;;5.80;4.10;;;18.10;71.20;;;;;;5053584;28;46480;-65
2022/06/13 04:39:46;;;;;;;8.10;3.70;;;18.10;71.10;;;;;;5050606;28;46428;-64
2022/06/13 04:42:14;;;;;;;5.53;3.83;;;18.10;71.10;;;;;;5053367;28;46381;-64
2022/06/13 04:44:41;;;;;;;5.80;3.70;;;18.10;71.20;;;;;;5047524;28;46682;-65
2022/06/13 04:47:11;;;;;;;6.47;3.80;;;18.10;71.80;;;;;;5064580;27;49394;-64
2022/06/13 04:49:47;;;;;;;7.27;4.07;;;18.00;71.80;;;;;;5048350;28;46575;-66
2022/06/13 04:52:17;;;;;;;9.10;3.50;;;18.00;71.80;;;;;;5052824;28;46392;-64
2022/06/13 04:54:55;;;;;;;6.87;4.00;;;18.10;71.90;;;;;;5050179;28;46628;-64
2022/06/13 04:57:21;;;;;;;8.30;4.20;;;18.10;71.90;;;;;;5051590;28;46654;-64
2022/06/13 04:59:47;;;;;;;7.53;3.53;;;18.20;71.40;;;;;;5050783;28;46807;-64
2022/06/13 05:02:18;;;;;;;5.53;3.90;;;18.30;71.10;;;;;;5049757;28;46783;-63
2022/06/13 05:04:44;;;;;;;7.90;4.40;;;18.30;70.90;;;;;;5053580;28;46315;-64
2022/06/13 05:07:20;;;;;;;6.20;4.07;;;18.40;71.00;;;;;;5055115;28;46643;-64
2022/06/13 05:10:02;;;;;;;6.90;3.53;;;18.40;71.10;;;;;;5050776;28;46283;-64
2022/06/13 05:12:37;;;;;;;7.77;3.97;;;18.40;71.00;;;;;;5054607;28;46424;-64
2022/06/13 05:15:25;;;;;;;5.37;4.03;;;18.50;71.00;;;;;;5050575;28;46560;-64
2022/06/13 05:18:23;;;;;;;6.17;3.47;;;18.70;70.90;;;;;;5050560;28;46664;-65
2022/06/13 05:21:00;;;;;;;5.43;3.67;;;18.80;70.20;;;;;;5048072;28;46006;-64
2022/06/13 05:23:52;;;;;;;7.10;3.60;;;19.00;69.40;;;;;;5052018;28;45843;-64
2022/06/13 05:26:17;;;;;;;4.77;3.47;;;19.20;69.30;;;;;;5052952;28;46448;-64
2022/06/13 05:28:43;;;;;;;4.80;3.40;;;19.40;68.70;;;;;;5048430;28;47259;-64
2022/06/13 05:31:16;;;;;;;8.27;3.90;;;19.50;68.30;;;;;;5050369;28;46528;-64
2022/06/13 05:33:43;;;;;;;4.80;3.37;;;19.60;68.10;;;;;;5049793;28;46393;-64
2022/06/13 05:36:14;;;;;;;5.17;3.40;;;19.80;67.70;;;;;;5048143;28;46512;-64
2022/06/13 05:38:52;;;;;;;6.40;3.67;;;19.90;67.60;;;;;;5052834;28;46385;-65
2022/06/13 05:41:18;;;;;;;5.17;2.83;;;20.00;67.50;;;;;;5050251;28;46392;-65
2022/06/13 05:43:44;;;;;;;5.87;3.43;;;20.10;67.00;;;;;;5051754;28;45821;-63
2022/06/13 05:46:18;;;;;;;7.57;3.30;;;20.20;67.00;;;;;;5053258;28;46701;-63
2022/06/13 05:48:43;;;;;;;10.67;3.47;;;20.20;67.00;;;;;;5050458;28;46882;-63
2022/06/13 05:51:09;;;;;;;5.03;3.53;;;20.20;66.80;;;;;;5049541;28;46545;-63
2022/06/13 05:53:35;;;;;;;4.90;2.67;;;20.60;67.20;;;;;;5049796;28;46464;-62
2022/06/13 05:56:02;;;;;;;4.77;2.93;;;21.20;67.50;;;;;;5055533;28;46465;-62
2022/06/13 05:58:28;;;;;;;4.70;3.30;;;21.50;66.50;;;;;;5051358;28;47045;-64
2022/06/13 06:00:57;;;;;;;5.77;2.97;;;21.60;65.40;;;;;;5047830;28;46469;-63
2022/06/13 06:03:24;;;;;;;6.33;3.60;;;22.00;64.10;;;;;;5053113;28;46449;-64
2022/06/13 06:05:49;;;;;;;5.80;3.00;;;22.20;62.80;;;;;;5047239;28;46067;-64
2022/06/13 06:08:19;;;;;;;6.30;3.00;;;21.90;63.10;;;;;;5047444;28;47958;-70
2022/06/13 06:10:47;;;;;;;5.87;3.20;;;21.80;63.20;;;;;;5053735;28;46360;-65
2022/06/13 06:13:13;;;;;;;6.33;3.03;;;21.70;63.10;;;;;;5048198;28;46879;-63
2022/06/13 06:15:40;;;;;;;6.33;3.67;;;21.40;63.10;;;;;;5052939;28;46504;-63
2022/06/13 06:18:06;;;;;;;6.00;3.63;;;21.20;63.50;;;;;;5052582;28;46489;-66
2022/06/13 06:20:32;;;;;;;5.63;3.50;;;21.10;63.60;;;;;;5050754;28;46366;-64
2022/06/13 06:22:58;;;;;;;6.17;3.20;;;21.10;63.60;;;;;;5050006;28;46151;-64
2022/06/13 06:25:23;;;;;;;8.07;3.60;;;21.20;63.50;;;;;;5052325;28;46519;-63
2022/06/13 06:27:49;;;;;;;7.43;3.20;;;21.10;63.40;;;;;;5047415;28;47202;-65
2022/06/13 06:30:16;;;;;;;6.97;3.30;;;20.70;64.00;;;;;;5049441;28;46369;-63
2022/06/13 06:32:42;;;;;;;7.30;3.87;;;20.40;64.30;;;;;;5051846;28;46526;-64
2022/06/13 06:35:08;;;;;;;8.00;3.40;;;20.30;64.40;;;;;;5048081;28;46576;-63
2022/06/13 06:37:37;;;;;;;6.33;3.20;;;20.40;64.00;;;;;;5045849;28;48321;-65
2022/06/13 06:40:02;;;;;;;8.53;3.67;;;20.50;63.90;;;;;;5047551;28;45862;-63
2022/06/13 06:42:28;;;;;;;5.37;3.07;;;21.00;63.20;;;;;;5049621;28;46409;-63
2022/06/13 06:44:54;;;;;;;5.80;3.30;;;21.30;62.00;;;;;;5046810;28;46342;-64
2022/06/13 06:47:20;;;;;;;4.93;3.00;;;21.30;61.40;;;;;;5047326;28;48031;-63
2022/06/13 06:49:47;;;;;;;5.00;2.60;;;21.00;61.60;;;;;;5048224;28;46394;-62
2022/06/13 06:52:13;;;;;;;4.90;2.73;;;20.80;61.50;;;;;;5050670;28;46378;-65
2022/06/13 07:00:08;;;;;;;8.20;3.07;;;20.70;61.40;;;;;;5052655;28;46470;-64
2022/06/13 07:02:34;;;;;;;5.53;3.03;;;20.50;61.30;;;;;;5052015;28;46488;-63
2022/06/13 07:05:04;;;;;;;6.50;2.90;;;20.50;61.10;;;;;;5051148;28;46479;-64
2022/06/13 07:07:30;;;;;;;6.53;3.40;;;20.60;60.60;;;;;;5054203;28;47469;-63
2022/06/13 07:09:56;;;;;;;5.57;2.90;;;20.80;60.00;;;;;;5050016;28;46388;-64
2022/06/13 07:12:22;;;;;;;9.00;3.37;;;20.90;59.50;;;;;;5051268;28;46541;-63
2022/06/13 07:14:47;;;;;;;5.80;2.90;;;21.30;58.70;;;;;;5049411;28;46483;-63
2022/06/13 07:17:13;;;;;;;7.27;3.40;;;21.50;57.50;;;;;;5051359;28;46452;-63
2022/06/13 07:19:40;;;;;;;4.97;2.80;;;21.60;56.80;;;;;;5051767;28;46359;-64
2022/06/13 07:22:07;;;;;;;5.80;3.10;;;21.50;57.10;;;;;;5049363;28;46496;-64
2022/06/13 07:24:34;;;;;;;6.87;3.40;;;21.60;56.80;;;;;;5049979;28;46482;-64
2022/06/13 07:27:00;;;;;;;7.97;3.10;;;21.60;56.50;;;;;;5048433;28;46474;-64
2022/06/13 07:29:26;;;;;;;4.73;2.57;;;21.50;56.60;;;;;;5049727;28;46350;-64
2022/06/13 07:32:00;;;;;;;6.90;2.93;;;21.90;56.30;;;;;;5047986;28;46412;-63
2022/06/13 07:34:29;;;;;;;5.60;3.00;;;22.40;54.40;;;;;;5053129;28;46485;-64
2022/06/13 07:36:57;;;;;;;4.20;2.77;;;22.20;54.40;;;;;;5055131;28;46534;-64
2022/06/13 07:39:23;;;;;;;5.83;3.07;;;22.00;54.40;;;;;;5050138;28;46459;-63
2022/06/13 07:41:50;;;;;;;5.40;3.03;;;21.80;54.40;;;;;;5054616;28;46600;-64
2022/06/13 07:44:32;;;;;;;9.07;3.30;;;21.70;54.40;;;;;;5053217;28;46659;-64
2022/06/13 07:46:59;;;;;;;9.13;3.10;;;21.60;54.50;;;;;;5050822;28;46494;-64
2022/06/13 07:49:25;;;;;;;7.20;3.17;;;21.60;54.70;;;;;;5052414;28;46639;-64
2022/06/13 07:51:51;;;;;;;6.13;3.50;;;21.30;55.10;;;;;;5051776;28;46373;-64
2022/06/13 07:54:18;;;;;;;5.90;3.20;;;21.00;55.90;;;;;;5050519;28;46374;-65
2022/06/13 07:56:44;;;;;;;7.93;2.80;;;20.80;55.50;;;;;;5051955;28;47167;-64
2022/06/13 07:59:17;;;;;;;6.93;3.33;;;20.80;55.60;;;;;;5050162;28;46411;-63
2022/06/13 08:01:43;;;;;;;5.77;3.10;;;20.80;55.80;;;;;;5049866;28;46452;-63
2022/06/13 08:04:09;;;;;;;5.47;3.37;;;21.00;55.90;;;;;;5050699;28;45889;-62
2022/06/13 08:06:38;;;;;;;6.90;2.70;;;21.20;55.50;;;;;;5051532;27;46471;-62
2022/06/13 08:09:04;;;;;;;6.30;2.87;;;21.30;55.00;;;;;;5048639;28;46349;-62
2022/06/13 08:11:34;;;;;;;8.83;2.87;;;21.30;54.90;;;;;;5052393;28;46441;-64
2022/06/13 08:14:00;;;;;;;6.27;2.83;;;21.50;54.90;;;;;;5051845;28;46327;-64
2022/06/13 08:16:27;;;;;;;8.70;2.87;;;21.60;54.60;;;;;;5047830;28;47081;-62
2022/06/13 08:18:53;;;;;;;5.80;3.07;;;21.60;54.60;;;;;;5048499;28;46489;-63
2022/06/13 08:21:19;;;;;;;16.57;2.97;;;21.60;54.70;;;;;;5049084;28;46401;-63
2022/06/13 08:23:45;;;;;;;6.23;2.57;;;21.60;53.00;;;;;;5050016;28;45950;-63
2022/06/13 08:26:11;;;;;;;13.70;2.77;;;21.60;52.50;;;;;;5053599;28;47271;-63
2022/06/13 08:28:37;;;;;;;4.10;2.67;;;21.60;52.20;;;;;;5047274;28;46349;-62
2022/06/13 08:31:11;;;;;;;5.03;2.90;;;21.60;52.20;;;;;;5051026;28;46438;-62
2022/06/13 08:33:37;;;;;;;7.57;2.90;;;21.50;52.30;;;;;;5050082;28;46384;-64
2022/06/13 08:36:04;;;;;;;6.10;2.73;;;21.40;51.90;;;;;;5053526;28;46445;-61
2022/06/13 08:38:30;;;;;;;6.70;3.23;;;21.30;51.10;;;;;;5050739;28;46613;-61
2022/06/13 08:41:33;;;;;;;10.10;2.87;;;21.50;50.60;;;;;;5050003;28;46425;-61
2022/06/13 08:44:23;;;;;;;7.90;2.90;;;22.00;49.50;;;;;;5051298;28;46593;-62
2022/06/13 08:47:23;;;;;;;4.90;2.53;;;22.00;49.40;;;;;;5051400;28;46492;-62
2022/06/13 08:50:19;;;;;;;9.20;2.73;;;21.80;49.30;;;;;;5047397;28;46451;-62
2022/06/13 08:53:05;;;;;;;9.20;2.83;;;21.90;49.40;;;;;;5046950;28;46470;-64
2022/06/13 08:55:40;;;;;;;10.53;3.03;;;21.80;49.30;;;;;;5052806;28;46572;-62
2022/06/13 08:58:19;;;;;;;8.17;3.07;;;22.00;49.00;;;;;;5047463;28;46338;-62
2022/06/13 09:00:59;;;;;;;9.93;2.50;;;22.00;47.90;;;;;;5049041;28;46423;-63
2022/06/13 09:03:45;;;;;;;7.17;2.03;;;22.20;48.20;;;;;;5045205;28;46655;-64
2022/06/13 09:06:19;;;;;;;6.33;2.73;;;22.20;46.80;;;;;;5049565;28;45933;-63
2022/06/13 09:08:59;;;;;;;4.83;2.30;;;22.20;45.30;;;;;;5048961;28;47066;-62
2022/06/13 09:11:48;;;;;;;10.27;3.10;;;22.20;44.60;;;;;;5050303;28;46574;-63
2022/06/13 09:14:21;;;;;;;10.30;2.90;;;22.20;43.60;;;;;;5048447;28;45886;-62
2022/06/13 09:16:57;;;;;;;8.10;2.63;;;22.30;43.80;;;;;;5048286;28;46583;-63
2022/06/13 09:19:29;;;;;;;9.97;2.50;;;22.30;43.90;;;;;;5048370;28;46147;-62
2022/06/13 09:22:16;;;;;;;10.17;3.10;;;22.30;43.40;;;;;;5049735;28;46606;-63
2022/06/13 09:24:56;;;;;;;6.33;3.03;;;22.30;44.00;;;;;;5048948;28;46350;-62
2022/06/13 09:27:29;;;;;;;8.93;2.83;;;21.80;43.60;;;;;;5047665;28;46373;-64
2022/06/13 09:30:01;;;;;;;9.07;2.40;;;21.60;44.90;;;;;;5049231;28;46718;-64
2022/06/13 09:32:48;;;;;;;10.33;3.67;;;21.90;44.80;;;;;;5049044;28;45853;-64
2022/06/13 09:35:19;;;;;;;15.40;3.20;;;22.20;43.80;;;;;;5049033;28;45925;-64
2022/06/13 09:38:09;;;;;;;11.33;2.93;;;22.40;43.30;;;;;;5049045;28;46560;-63
2022/06/13 09:40:53;;;;;;;10.37;3.03;;;22.50;42.80;;;;;;5048415;28;47320;-64
2022/06/13 09:43:50;;;;;;;8.87;3.37;;;22.90;42.30;;;;;;5049091;28;46485;-63
2022/06/13 09:46:28;;;;;;;10.40;3.47;;;22.80;41.10;;;;;;5049425;28;46392;-63
2022/06/13 09:49:15;;;;;;;5.60;2.57;;;23.20;40.90;;;;;;5049552;28;46541;-63
2022/06/13 09:52:12;;;;;;;7.70;2.63;;;23.30;39.20;;;;;;5047506;28;48054;-64
2022/06/13 09:55:14;;;;;;;7.00;2.40;;;23.30;39.70;;;;;;5043115;28;46728;-63
2022/06/13 09:58:15;;;;;;;8.93;2.60;;;23.20;38.40;;;;;;5047963;28;46364;-63
2022/06/13 10:00:53;;;;;;;9.40;2.60;;;23.20;37.20;;;;;;5047408;28;46425;-62
2022/06/13 10:03:44;;;;;;;9.90;2.60;;;23.20;35.80;;;;;;5048112;28;46679;-62
2022/06/13 10:06:25;;;;;;;19.20;2.77;;;23.20;37.00;;;;;;5050642;28;46630;-63
2022/06/13 10:09:18;;;;;;;13.80;2.37;;;23.40;37.20;;;;;;5049828;28;46515;-62
2022/06/13 10:12:19;;;;;;;9.70;2.47;;;23.30;37.10;;;;;;5050095;28;46390;-61
2022/06/13 10:14:57;;;;;;;12.07;3.13;;;23.50;37.30;;;;;;5047546;28;47238;-62
2022/06/13 10:17:25;;;;;;;7.90;3.33;;;23.20;35.00;;;;;;5050976;28;45796;-61
2022/06/13 10:20:15;;;;;;;7.80;2.70;;;22.90;35.40;;;;;;5047876;28;46804;-64
2022/06/13 10:23:12;;;;;;;11.40;2.50;;;23.20;35.70;;;;;;5048737;28;46638;-62
2022/06/13 10:26:16;;;;;;;6.50;2.37;;;23.10;35.00;;;;;;5051786;28;46366;-63
2022/06/13 10:29:08;;;;;;;16.90;2.50;;;23.10;35.00;;;;;;5044228;28;46421;-63
2022/06/13 10:32:07;;;;;;;10.83;2.57;;;23.00;35.10;;;;;;5051158;28;46500;-63
2022/06/13 10:35:09;;;;;;;7.20;2.07;;;23.30;32.90;;;;;;5053563;28;46417;-62
2022/06/13 10:38:00;;;;;;;7.27;2.20;;;23.60;33.60;;;;;;5052247;28;47313;-63
2022/06/13 10:40:26;;;;;;;8.37;2.70;;;23.90;33.70;;;;;;5050982;28;46302;-63
2022/06/13 10:42:52;;;;;;;7.03;2.17;;;24.10;32.10;;;;;;5052685;28;46486;-65
2022/06/13 10:45:19;;;;;;;8.10;2.57;;;24.30;32.10;;;;;;5049216;28;46632;-63
2022/06/13 10:47:55;;;;;;;14.73;2.43;;;24.30;30.30;;;;;;5047618;28;46389;-63
2022/06/13 10:50:27;;;;;;;6.57;2.00;;;24.30;30.70;;;;;;5051331;28;45829;-63
2022/06/13 10:52:58;;;;;;;7.03;2.07;;;24.40;30.30;;;;;;5049425;28;46393;-62
2022/06/13 10:55:26;;;;;;;7.80;2.20;;;24.30;29.90;;;;;;5053482;28;46436;-63
2022/06/13 10:58:05;;;;;;;6.03;1.80;;;24.30;30.00;;;;;;5047591;28;46460;-63
2022/06/13 11:00:31;;;;;;;7.03;2.00;;;24.10;29.10;;;;;;5053716;28;46437;-62
2022/06/13 11:03:15;;;;;;;5.50;1.90;;;23.80;29.80;;;;;;5044904;28;46622;-63
2022/06/13 11:06:01;;;;;;;8.40;1.97;;;23.30;28.90;;;;;;5051337;28;46490;-63
2022/06/13 11:08:27;;;;;;;6.00;2.20;;;23.20;29.00;;;;;;5047169;28;46204;-62
2022/06/13 11:10:59;;;;;;;4.57;1.90;;;23.40;29.10;;;;;;5052809;28;46441;-62
2022/06/13 11:13:28;;;;;;;9.10;2.43;;;23.10;28.90;;;;;;5056695;28;46538;-62
2022/06/13 11:24:48;;;;;;;5.70;2.00;;;22.40;30.80;;;;;;5051637;28;46389;-61
2022/06/13 11:27:40;;;;;;;7.30;1.97;;;22.40;27.50;;;;;;5053042;28;46498;-62
2022/06/13 11:30:28;;;;;;;6.70;2.00;;;21.90;25.90;;;;;;5056615;28;46505;-62
2022/06/13 11:33:14;;;;;;;8.02;2.08;;;21.80;26.90;;;;;;5059493;28;46315;-61
2022/06/13 11:36:10;;;;;;;5.57;1.80;;;22.00;28.20;;;;;;5056127;28;46384;-62
2022/06/13 11:38:49;;;;;;;6.07;1.70;;;22.30;28.70;;;;;;5049945;28;46388;-61
2022/06/13 11:41:20;;;;;;;9.07;2.30;;;22.70;28.30;;;;;;5052503;28;47152;-59
2022/06/13 11:43:48;;;;;;;7.30;1.97;;;22.70;28.40;;;;;;5047377;28;46390;-60
2022/06/13 11:46:36;;;;;;;7.10;2.00;;;22.70;28.50;;;;;;5054173;28;46395;-59
2022/06/13 11:49:39;;;;;;;7.33;1.93;;;22.70;27.10;;;;;;5048216;28;46593;-59
2022/06/13 11:55:20;;;;;;;9.50;2.40;;;22.70;25.40;;;;;;5048732;28;46631;-62
2022/06/13 11:57:56;;;;;;;5.33;1.87;;;22.60;25.40;;;;;;5050583;28;46468;-61
2022/06/13 12:00:24;;;;;;;9.07;1.90;;;22.60;25.50;;;;;;5047016;28;46504;-62
2022/06/13 12:02:50;;;;;;;8.77;1.97;;;22.50;25.80;;;;;;5051003;28;47768;-61
2022/06/13 12:05:22;;;;;;;6.10;1.93;;;22.60;26.20;;;;;;5051341;28;46361;-62
2022/06/13 12:08:14;;;;;;;5.40;2.00;;;22.80;26.00;;;;;;5051129;28;46775;-62
2022/06/13 12:10:51;;;;;;;10.10;2.30;;;22.80;24.40;;;;;;5047744;28;46704;-62
2022/06/13 12:13:20;;;;;;;9.53;2.33;;;22.70;24.30;;;;;;5047898;28;48080;-62
2022/06/13 12:16:11;;;;;;;6.30;2.33;;;22.90;25.20;;;;;;5049674;28;45819;-60
2022/06/13 12:18:37;;;;;;;5.57;2.10;;;23.00;25.30;;;;;;5042017;28;46566;-62
2022/06/13 12:21:26;;;;;;;6.83;2.50;;;23.00;24.50;;;;;;5059085;28;46522;-61
2022/06/13 12:24:18;;;;;;;7.40;2.13;;;23.10;24.00;;;;;;5048510;28;46318;-61
2022/06/13 12:26:55;;;;;;;7.27;2.00;;;23.10;23.70;;;;;;5042472;28;46440;-62
2022/06/13 12:29:44;;;;;;;9.80;2.00;;;23.10;24.70;;;;;;5050479;28;46484;-60
2022/06/13 12:32:18;;;;;;;7.80;2.60;;;23.00;24.60;;;;;;5047509;28;46448;-60
2022/06/13 12:34:43;;;;;;;10.27;2.30;;;22.90;24.50;;;;;;5049249;28;47901;-61
2022/06/13 12:37:20;;;;;;;12.93;2.47;;;22.90;24.50;;;;;;5051633;28;46482;-61
2022/06/13 12:40:18;;;;;;;7.10;2.60;;;23.20;25.60;;;;;;5054779;28;46166;-62
2022/06/13 12:43:12;;;;;;;5.87;2.57;;;23.30;25.80;;;;;;5052929;28;46455;-60
2022/06/13 12:45:43;;;;;;;10.63;2.47;;;23.40;24.80;;;;;;5051097;28;47065;-62
2022/06/13 12:48:30;;;;;;;8.37;2.13;;;23.60;24.10;;;;;;5051760;28;46483;-63
2022/06/13 12:51:04;;;;;;;5.40;2.40;;;23.80;24.50;;;;;;5048656;28;46440;-59
2022/06/13 12:53:47;;;;;;;5.10;1.90;;;24.20;24.50;;;;;;5054254;28;46575;-63
2022/06/13 12:56:26;;;;;;;5.60;2.00;;;24.60;23.60;;;;;;5050427;28;46442;-62
2022/06/13 12:59:14;;;;;;;9.27;2.30;;;24.60;23.80;;;;;;5051069;28;46594;-62
2022/06/13 13:02:03;;;;;;;4.87;1.70;;;24.40;22.10;;;;;;5053549;28;45911;-63
2022/06/13 13:04:49;;;;;;;6.33;2.07;;;24.30;23.40;;;;;;5063777;28;46504;-62
2022/06/13 13:07:34;;;;;;;11.00;2.30;;;24.20;22.70;;;;;;5063699;28;46274;-62
2022/06/13 13:10:05;;;;;;;5.40;2.40;;;24.10;23.70;;;;;;5049615;28;46432;-63
2022/06/13 13:12:53;;;;;;;7.53;2.37;;;24.10;22.60;;;;;;5048274;28;46743;-61
2022/06/13 13:15:39;;;;;;;6.97;2.27;;;24.10;22.20;;;;;;5045149;28;46822;-63
2022/06/13 13:18:35;;;;;;;5.17;1.80;;;24.10;22.60;;;;;;5046726;28;47832;-62
2022/06/13 13:21:18;;;;;;;7.30;2.40;;;24.10;22.40;;;;;;5048176;28;46487;-62
2022/06/13 13:23:59;;;;;;;8.13;2.53;;;23.70;22.30;;;;;;5049527;28;46568;-62
2022/06/13 13:26:47;;;;;;;8.77;2.23;;;23.30;23.50;;;;;;5046922;28;46746;-61
2022/06/13 13:29:18;;;;;;;6.20;2.10;;;23.30;23.30;;;;;;5048358;28;46713;-63
2022/06/13 13:31:58;;;;;;;6.50;2.00;;;23.10;23.70;;;;;;5046028;28;46739;-61
2022/06/13 13:34:49;;;;;;;8.37;2.67;;;23.10;22.10;;;;;;5052977;28;46538;-61
2022/06/13 13:37:21;;;;;;;13.57;3.10;;;23.30;21.80;;;;;;5055306;28;46550;-62
2022/06/13 13:39:58;;;;;;;8.10;2.23;;;23.40;22.00;;;;;;5052012;28;47026;-61
2022/06/13 13:42:26;;;;;;;8.23;2.40;;;23.20;22.50;;;;;;5051918;28;46370;-62
2022/06/13 13:45:03;;;;;;;7.47;1.73;;;23.40;22.40;;;;;;5052510;28;46468;-61
2022/06/13 13:47:34;;;;;;;5.10;1.97;;;23.50;21.70;;;;;;5050131;28;46353;-61
2022/06/13 13:50:16;;;;;;;8.30;1.83;;;23.70;22.10;;;;;;5053896;28;47338;-62
2022/06/13 13:52:53;;;;;;;6.83;1.80;;;23.50;19.80;;;;;;5045926;28;46439;-63